Akhiok, Alaska
Current Conditions -  °F | °C
As of 2:56 PM on Wednesday 22 Oct 2014 (Local Time) from PAKH Reporting Station
Clear Clear  
Wind Chill: 35°   Ceiling: Unl
Heat Index: 44°   Visibility: 10mi
Dew Point: 32°   Wind: 23mph
Humidity: 63%   Direction: 300°WNW
Pressure: 29.33"   Gusts: 31mph
Location:  57.454°N, 153.546°W
Report Text: PAKH 222256Z AUTO 30020G27KT 10SM CLR 07/00 A2933 RMK AO2 TSNO T00660000 PK WND 32032/2212 SLP935 $
Loading
Personal Weather Stations






























Interactive Weather Map
Tropical Storm Tracking
New forecast layout! Learn more

10-Day Weather Forecast

Advertisements
Track Severe Weather on mobile